createdAt,value
2017-08-11T09:12:58.172Z,230.63
2017-08-11T09:12:58.745Z,230.63
2017-08-11T09:12:59.339Z,230.63
2017-08-11T09:12:59.940Z,230.63
2017-08-11T09:13:00.544Z,230.63
2017-08-11T09:13:01.151Z,230.63
2017-08-11T09:13:01.744Z,230.63
2017-08-11T09:13:02.340Z,230.63
2017-08-11T09:13:56.823Z,168.75
2017-08-11T09:13:57.416Z,168.75
2017-08-11T09:13:58.017Z,168.75
2017-08-11T09:13:58.623Z,168.75
2017-08-11T09:13:59.219Z,168.75
2017-08-11T09:13:59.824Z,168.75
2017-08-11T09:14:00.420Z,168.75
2017-08-11T09:14:01.019Z,168.75
2017-08-11T09:14:54.477Z,163.13
2017-08-11T09:14:55.077Z,163.13
2017-08-11T09:14:55.676Z,163.13
2017-08-11T09:14:56.276Z,163.13
2017-08-11T09:14:56.873Z,163.13
2017-08-11T09:14:57.469Z,163.13
2017-08-11T09:14:58.075Z,163.13
2017-08-11T09:14:58.673Z,163.13
2017-08-11T09:15:52.132Z,157.50
2017-08-11T09:15:52.729Z,157.50
2017-08-11T09:15:53.329Z,157.50
2017-08-11T09:15:53.925Z,157.50
2017-08-11T09:15:54.525Z,157.50
2017-08-11T09:15:55.125Z,157.50
2017-08-11T09:15:55.728Z,157.50
2017-08-11T09:15:56.327Z,157.50
2017-08-11T09:16:51.317Z,151.88
2017-08-11T09:16:51.909Z,151.88
2017-08-11T09:16:52.511Z,151.88
2017-08-11T09:16:53.111Z,151.88
2017-08-11T09:16:53.712Z,151.88
2017-08-11T09:16:54.312Z,151.88
2017-08-11T09:16:54.912Z,151.88
2017-08-11T09:17:48.483Z,146.25
2017-08-11T09:17:49.052Z,146.25
2017-08-11T09:17:49.653Z,146.25
2017-08-11T09:17:50.256Z,140.63
2017-08-11T09:17:50.853Z,140.63
2017-08-11T09:17:51.455Z,140.63
2017-08-11T09:17:52.051Z,146.25
2017-08-11T09:17:52.656Z,151.88
2017-08-11T09:18:47.130Z,151.88
2017-08-11T09:18:47.730Z,151.88
2017-08-11T09:18:48.331Z,151.88
2017-08-11T09:18:48.924Z,151.88
2017-08-11T09:18:49.531Z,151.88
2017-08-11T09:18:50.124Z,151.88
2017-08-11T09:18:50.728Z,151.88
2017-08-11T09:18:51.323Z,151.88
2017-08-11T09:19:44.787Z,151.88
2017-08-11T09:19:45.376Z,151.88
2017-08-11T09:19:45.980Z,151.88
2017-08-11T09:19:46.580Z,151.88
2017-08-11T09:19:47.179Z,151.88
2017-08-11T09:19:47.783Z,151.88
2017-08-11T09:19:48.386Z,151.88
2017-08-11T09:19:48.980Z,151.88
2017-08-11T09:20:42.440Z,146.25
2017-08-11T09:20:43.029Z,146.25
2017-08-11T09:20:43.629Z,146.25
2017-08-11T09:20:44.229Z,146.25
2017-08-11T09:20:44.836Z,146.25
2017-08-11T09:20:45.427Z,146.25
2017-08-11T09:20:46.029Z,146.25
2017-08-11T09:20:46.634Z,146.25
2017-08-11T09:21:40.594Z,146.25
2017-08-11T09:21:41.198Z,146.25
2017-08-11T09:21:41.796Z,146.25
2017-08-11T09:21:42.393Z,146.25
2017-08-11T09:21:42.991Z,146.25
2017-08-11T09:21:43.590Z,146.25
2017-08-11T09:21:44.195Z,146.25
2017-08-11T09:22:38.662Z,140.63
2017-08-11T09:22:39.255Z,140.63
2017-08-11T09:22:39.856Z,140.63
2017-08-11T09:22:40.455Z,140.63
2017-08-11T09:22:41.059Z,140.63
2017-08-11T09:22:41.652Z,140.63
2017-08-11T09:22:42.259Z,140.63
2017-08-11T09:22:42.852Z,140.63
2017-08-11T09:23:36.330Z,135.00
2017-08-11T09:23:36.909Z,135.00
2017-08-11T09:23:37.511Z,135.00
2017-08-11T09:23:38.111Z,135.00
2017-08-11T09:23:38.709Z,135.00
2017-08-11T09:23:39.311Z,135.00
2017-08-11T09:23:39.910Z,135.00
2017-08-11T09:23:40.510Z,135.00
2017-08-11T09:24:33.968Z,123.75
2017-08-11T09:24:34.565Z,123.75
2017-08-11T09:24:35.160Z,123.75
2017-08-11T09:24:35.761Z,123.75
2017-08-11T09:24:36.361Z,123.75
2017-08-11T09:24:36.957Z,123.75
2017-08-11T09:24:37.560Z,123.75
2017-08-11T09:24:38.160Z,123.75
2017-08-11T09:25:31.615Z,118.13
2017-08-11T09:25:32.214Z,118.13
2017-08-11T09:25:32.808Z,118.13
2017-08-11T09:25:33.411Z,118.13
2017-08-11T09:25:34.015Z,118.13
2017-08-11T09:25:34.607Z,112.50
2017-08-11T09:25:35.212Z,112.50
2017-08-11T09:25:35.811Z,112.50
2017-08-11T09:26:29.271Z,106.88
2017-08-11T09:26:29.868Z,106.88
2017-08-11T09:26:30.461Z,106.88
2017-08-11T09:26:31.060Z,106.88
2017-08-11T09:26:31.664Z,106.88
2017-08-11T09:26:32.264Z,106.88
2017-08-11T09:26:32.859Z,106.88
2017-08-11T09:26:33.466Z,106.88
2017-08-11T09:27:26.919Z,101.25
2017-08-11T09:27:27.515Z,101.25
2017-08-11T09:27:28.112Z,101.25
2017-08-11T09:27:28.712Z,101.25
2017-08-11T09:27:29.314Z,101.25
2017-08-11T09:27:29.913Z,101.25
2017-08-11T09:27:30.518Z,101.25
2017-08-11T09:27:31.118Z,101.25
2017-08-11T09:28:25.616Z,95.63
2017-08-11T09:28:26.192Z,95.63
2017-08-11T09:28:26.791Z,95.63
2017-08-11T09:28:27.390Z,95.63
2017-08-11T09:28:27.991Z,95.63
2017-08-11T09:28:28.592Z,95.63
2017-08-11T09:28:29.190Z,95.63
2017-08-11T09:28:29.795Z,95.63
2017-08-11T09:29:24.270Z,95.63
2017-08-11T09:29:24.874Z,95.63
2017-08-11T09:29:25.463Z,95.63
2017-08-11T09:29:26.066Z,95.63
2017-08-11T09:29:26.665Z,95.63
2017-08-11T09:29:27.269Z,95.63
2017-08-11T09:29:27.865Z,95.63
2017-08-11T09:29:28.462Z,95.63
2017-08-11T09:30:22.944Z,95.63
2017-08-11T09:30:23.541Z,95.63
2017-08-11T09:30:24.143Z,95.63
2017-08-11T09:30:24.743Z,95.63
2017-08-11T09:30:25.341Z,95.63
2017-08-11T09:30:25.941Z,95.63
2017-08-11T09:30:26.541Z,95.63
2017-08-11T09:30:27.137Z,95.63
2017-08-11T09:31:21.621Z,95.63
2017-08-11T09:31:22.214Z,95.63
2017-08-11T09:31:22.816Z,95.63
2017-08-11T09:31:23.412Z,95.63
2017-08-11T09:31:24.022Z,95.63
2017-08-11T09:31:24.613Z,95.63
2017-08-11T09:31:25.216Z,95.63
2017-08-11T09:31:25.819Z,95.63
2017-08-11T09:50:23.203Z,84.38
2017-08-11T09:50:23.777Z,84.38
2017-08-11T09:50:24.374Z,84.38
2017-08-11T09:50:24.978Z,84.38
2017-08-11T09:50:25.576Z,84.38
2017-08-11T09:50:26.177Z,84.38
2017-08-11T09:50:26.773Z,90.00
2017-08-11T09:50:27.382Z,90.00
2017-08-11T09:51:21.861Z,95.63
2017-08-11T09:51:22.454Z,95.63
2017-08-11T09:51:23.058Z,95.63
2017-08-11T09:51:23.654Z,95.63
2017-08-11T09:51:24.253Z,95.63
2017-08-11T09:51:24.851Z,95.63
2017-08-11T09:51:25.458Z,95.63
2017-08-11T09:51:26.054Z,95.63
2017-08-11T09:52:20.535Z,101.25
2017-08-11T09:52:21.134Z,101.25
2017-08-11T09:52:21.732Z,101.25
2017-08-11T09:52:22.330Z,101.25
2017-08-11T09:52:22.929Z,101.25
2017-08-11T09:52:23.531Z,101.25
2017-08-11T09:52:24.126Z,106.88
2017-08-11T09:52:24.734Z,106.88
2017-08-11T09:53:18.188Z,106.88
2017-08-11T09:53:18.784Z,106.88
2017-08-11T09:53:19.390Z,106.88
2017-08-11T09:53:19.984Z,106.88
2017-08-11T09:53:20.581Z,106.88
2017-08-11T09:53:21.191Z,106.88
2017-08-11T09:53:21.784Z,106.88
2017-08-11T09:53:22.385Z,106.88
2017-08-11T09:54:16.889Z,118.13
2017-08-11T09:54:17.472Z,118.13
2017-08-11T09:54:18.054Z,118.13
2017-08-11T09:54:18.663Z,118.13
2017-08-11T09:54:19.258Z,118.13
2017-08-11T09:54:19.854Z,118.13
2017-08-11T09:54:20.452Z,118.13
2017-08-11T09:54:21.052Z,118.13
2017-08-11T09:55:14.515Z,123.75
2017-08-11T09:55:15.110Z,123.75
2017-08-11T09:55:15.709Z,118.13
2017-08-11T09:55:16.314Z,118.13
2017-08-11T09:55:16.911Z,118.13
2017-08-11T09:55:17.511Z,123.75
2017-08-11T09:55:18.109Z,123.75
2017-08-11T09:55:18.710Z,123.75
2017-08-11T09:56:12.169Z,129.38
2017-08-11T09:56:12.759Z,129.38
2017-08-11T09:56:13.363Z,129.38
2017-08-11T09:56:13.966Z,129.38
2017-08-11T09:56:14.561Z,129.38
2017-08-11T09:56:15.165Z,129.38
2017-08-11T09:56:15.766Z,129.38
2017-08-11T09:56:16.364Z,129.38
2017-08-11T09:57:10.844Z,123.75
2017-08-11T09:57:11.442Z,123.75
2017-08-11T09:57:12.036Z,123.75
2017-08-11T09:57:12.635Z,123.75
2017-08-11T09:57:13.233Z,123.75
2017-08-11T09:57:13.837Z,123.75
2017-08-11T09:57:14.432Z,123.75
2017-08-11T09:57:15.038Z,123.75
2017-08-11T09:58:09.520Z,118.13
2017-08-11T09:58:10.118Z,118.13
2017-08-11T09:58:10.717Z,118.13
2017-08-11T09:58:11.318Z,118.13
2017-08-11T09:58:11.916Z,118.13
2017-08-11T09:58:12.513Z,118.13
2017-08-11T09:58:13.112Z,118.13
2017-08-11T09:58:13.719Z,118.13
2017-08-11T09:59:08.194Z,106.88
2017-08-11T09:59:08.786Z,106.88
2017-08-11T09:59:09.394Z,106.88
2017-08-11T09:59:09.990Z,106.88
2017-08-11T09:59:10.593Z,106.88
2017-08-11T09:59:11.189Z,106.88
2017-08-11T09:59:11.789Z,106.88
2017-08-11T09:59:12.394Z,106.88
2017-08-11T10:00:07.175Z,101.25
2017-08-11T10:00:07.689Z,101.25
2017-08-11T10:00:08.283Z,101.25
2017-08-11T10:00:08.891Z,101.25
2017-08-11T10:00:09.489Z,101.25
2017-08-11T10:00:10.085Z,101.25
2017-08-11T10:00:10.690Z,101.25
2017-08-11T10:00:11.285Z,101.25
2017-08-11T10:01:05.343Z,95.63
2017-08-11T10:01:05.935Z,90.00
2017-08-11T10:01:06.537Z,90.00
2017-08-11T10:01:07.134Z,84.38
2017-08-11T10:01:07.737Z,90.00
2017-08-11T10:01:08.340Z,95.63
2017-08-11T10:01:08.940Z,95.63
2017-08-11T10:01:09.533Z,101.25
2017-08-11T10:02:04.016Z,106.88
2017-08-11T10:02:04.614Z,106.88
2017-08-11T10:02:05.207Z,106.88
2017-08-11T10:02:05.811Z,106.88
2017-08-11T10:02:06.411Z,106.88
2017-08-11T10:02:07.014Z,106.88
2017-08-11T10:02:07.617Z,106.88
2017-08-11T10:02:08.216Z,106.88
2017-08-11T10:03:02.692Z,106.88
2017-08-11T10:03:03.284Z,106.88
2017-08-11T10:03:03.887Z,106.88
2017-08-11T10:03:04.485Z,106.88
2017-08-11T10:03:05.087Z,106.88
2017-08-11T10:03:05.732Z,106.88
2017-08-11T10:03:06.293Z,106.88
2017-08-11T10:03:06.887Z,106.88
2017-08-11T10:04:00.341Z,106.88
2017-08-11T10:04:00.938Z,106.88
2017-08-11T10:04:01.584Z,106.88
2017-08-11T10:04:02.141Z,106.88
2017-08-11T10:04:02.778Z,106.88
2017-08-11T10:04:03.388Z,106.88
2017-08-11T10:04:03.988Z,106.88
2017-08-11T10:04:04.544Z,106.88
2017-08-11T10:04:57.998Z,106.88
2017-08-11T10:04:58.589Z,106.88
2017-08-11T10:04:59.191Z,106.88
2017-08-11T10:04:59.796Z,106.88
2017-08-11T10:05:00.387Z,106.88
2017-08-11T10:05:00.994Z,106.88
2017-08-11T10:05:01.592Z,106.88
2017-08-11T10:05:02.189Z,106.88
2017-08-11T10:05:55.673Z,101.25
2017-08-11T10:05:56.239Z,101.25
2017-08-11T10:05:56.840Z,101.25
2017-08-11T10:05:57.439Z,101.25
2017-08-11T10:05:58.043Z,101.25
2017-08-11T10:05:58.644Z,101.25
2017-08-11T10:05:59.247Z,101.25
2017-08-11T10:05:59.843Z,101.25
2017-08-11T10:06:53.302Z,101.25
2017-08-11T10:06:53.891Z,101.25
2017-08-11T10:06:54.498Z,101.25
2017-08-11T10:06:55.093Z,101.25
2017-08-11T10:06:55.699Z,101.25
2017-08-11T10:06:56.296Z,101.25
2017-08-11T10:06:56.893Z,101.25
2017-08-11T10:06:57.493Z,101.25
2017-08-11T10:07:50.951Z,101.25
2017-08-11T10:07:51.548Z,101.25
2017-08-11T10:07:52.147Z,101.25
2017-08-11T10:07:52.746Z,101.25
2017-08-11T10:07:53.345Z,101.25
2017-08-11T10:07:53.948Z,101.25
2017-08-11T10:07:54.549Z,101.25
2017-08-11T10:07:55.150Z,101.25
2017-08-11T10:08:49.625Z,101.25
2017-08-11T10:08:50.224Z,101.25
2017-08-11T10:08:50.820Z,101.25
2017-08-11T10:08:51.420Z,101.25
2017-08-11T10:08:52.018Z,101.25
2017-08-11T10:08:52.616Z,101.25
2017-08-11T10:08:53.225Z,101.25
2017-08-11T10:08:53.821Z,101.25
2017-08-11T10:09:48.297Z,95.63
2017-08-11T10:09:48.900Z,95.63
2017-08-11T10:09:49.495Z,95.63
2017-08-11T10:09:50.092Z,95.63
2017-08-11T10:09:50.697Z,95.63
2017-08-11T10:09:51.296Z,95.63
2017-08-11T10:09:51.900Z,95.63
2017-08-11T10:09:52.496Z,95.63
2017-08-11T10:10:47.002Z,95.63
2017-08-11T10:10:47.576Z,95.63
2017-08-11T10:10:48.169Z,95.63
2017-08-11T10:10:48.776Z,95.63
2017-08-11T10:10:49.371Z,95.63
2017-08-11T10:10:49.969Z,95.63
2017-08-11T10:10:50.569Z,95.63
2017-08-11T10:10:51.173Z,95.63
2017-08-11T10:11:44.632Z,95.63
2017-08-11T10:11:45.226Z,95.63
2017-08-11T10:11:45.828Z,95.63
2017-08-11T10:11:46.421Z,95.63
2017-08-11T10:11:47.027Z,95.63
2017-08-11T10:11:47.625Z,95.63
2017-08-11T10:11:48.231Z,95.63
2017-08-11T10:11:48.828Z,95.63
2017-08-11T10:12:42.277Z,95.63
2017-08-11T10:12:42.878Z,95.63
2017-08-11T10:12:43.473Z,95.63
2017-08-11T10:12:44.076Z,95.63
2017-08-11T10:12:44.678Z,95.63
2017-08-11T10:12:45.277Z,95.63
2017-08-11T10:12:45.873Z,95.63
2017-08-11T10:12:46.482Z,95.63
2017-08-11T10:13:39.935Z,90.00
2017-08-11T10:13:40.527Z,90.00
2017-08-11T10:13:41.127Z,90.00
2017-08-11T10:13:41.724Z,90.00
2017-08-11T10:13:42.335Z,90.00
2017-08-11T10:13:42.927Z,90.00
2017-08-11T10:13:43.528Z,90.00
2017-08-11T10:13:44.127Z,90.00
2017-08-11T10:14:38.603Z,90.00
2017-08-11T10:14:39.201Z,90.00
2017-08-11T10:14:39.803Z,90.00
2017-08-11T10:14:40.407Z,90.00
2017-08-11T10:14:41.004Z,90.00
2017-08-11T10:14:41.608Z,90.00
2017-08-11T10:14:42.203Z,90.00
2017-08-11T10:14:42.804Z,90.00
2017-08-11T10:15:37.280Z,90.00
2017-08-11T10:15:37.883Z,90.00
2017-08-11T10:15:38.476Z,90.00
2017-08-11T10:15:39.074Z,90.00
2017-08-11T10:15:39.678Z,90.00
2017-08-11T10:15:40.282Z,90.00
2017-08-11T10:15:40.877Z,90.00
2017-08-11T10:15:41.476Z,90.00
2017-08-11T10:16:34.963Z,84.38
2017-08-11T10:16:35.531Z,84.38
2017-08-11T10:16:36.134Z,84.38
2017-08-11T10:16:36.731Z,84.38
2017-08-11T10:16:37.335Z,84.38
2017-08-11T10:16:37.933Z,84.38
2017-08-11T10:16:38.536Z,84.38
2017-08-11T10:16:39.131Z,84.38
2017-08-11T10:17:32.587Z,84.38
2017-08-11T10:17:33.185Z,84.38
2017-08-11T10:17:33.787Z,78.75
2017-08-11T10:17:34.382Z,84.38
2017-08-11T10:17:34.987Z,78.75
2017-08-11T10:17:35.590Z,78.75
2017-08-11T10:17:36.186Z,78.75
2017-08-11T10:17:36.778Z,78.75
2017-08-11T10:18:30.238Z,78.75
2017-08-11T10:18:30.835Z,78.75
2017-08-11T10:18:31.434Z,78.75
2017-08-11T10:18:32.033Z,78.75
2017-08-11T10:18:32.638Z,78.75
2017-08-11T10:18:33.235Z,78.75
2017-08-11T10:18:33.837Z,78.75
2017-08-11T10:18:34.437Z,78.75
2017-08-11T10:19:27.887Z,78.75
2017-08-11T10:19:28.486Z,78.75
2017-08-11T10:19:29.085Z,78.75
2017-08-11T10:19:29.690Z,78.75
2017-08-11T10:19:30.285Z,78.75
2017-08-11T10:19:30.880Z,78.75
2017-08-11T10:19:31.485Z,78.75
2017-08-11T10:19:32.089Z,78.75
2017-08-11T10:20:25.545Z,78.75
2017-08-11T10:20:26.134Z,78.75
2017-08-11T10:20:26.738Z,78.75
2017-08-11T10:20:27.338Z,78.75
2017-08-11T10:20:27.941Z,78.75
2017-08-11T10:20:28.539Z,78.75
2017-08-11T10:20:29.138Z,78.75
2017-08-11T10:20:29.739Z,78.75
2017-08-11T10:21:24.252Z,78.75
2017-08-11T10:21:24.813Z,78.75
2017-08-11T10:21:25.412Z,78.75
2017-08-11T10:21:26.016Z,78.75
2017-08-11T10:21:26.612Z,78.75
2017-08-11T10:21:27.211Z,78.75
2017-08-11T10:21:27.815Z,78.75
2017-08-11T10:21:28.412Z,78.75
2017-08-11T10:22:23.403Z,78.75
2017-08-11T10:22:24.001Z,78.75
2017-08-11T10:22:24.596Z,78.75
2017-08-11T10:22:25.202Z,78.75
2017-08-11T10:22:25.796Z,78.75
2017-08-11T10:22:26.396Z,78.75
2017-08-11T10:23:20.438Z,84.38
2017-08-11T10:23:21.043Z,84.38
2017-08-11T10:23:21.635Z,84.38
2017-08-11T10:23:22.241Z,84.38
2017-08-11T10:23:22.841Z,84.38
2017-08-11T10:23:23.442Z,84.38
2017-08-11T10:23:24.036Z,84.38
2017-08-11T10:23:24.641Z,84.38
2017-08-11T10:24:19.120Z,84.38
2017-08-11T10:24:19.716Z,84.38
2017-08-11T10:24:20.311Z,84.38
2017-08-11T10:24:20.909Z,84.38
2017-08-11T10:24:21.513Z,84.38
2017-08-11T10:24:22.116Z,84.38
2017-08-11T10:24:22.712Z,84.38
2017-08-11T10:24:23.312Z,84.38
2017-08-11T10:25:17.796Z,90.00
2017-08-11T10:25:18.384Z,90.00
2017-08-11T10:25:18.989Z,90.00
2017-08-11T10:25:19.592Z,90.00
2017-08-11T10:25:20.186Z,90.00
2017-08-11T10:25:20.789Z,90.00
2017-08-11T10:25:21.386Z,90.00
2017-08-11T10:25:21.984Z,90.00
2017-08-11T10:26:16.467Z,90.00
2017-08-11T10:26:17.065Z,90.00
2017-08-11T10:26:17.664Z,90.00
2017-08-11T10:26:18.260Z,90.00
2017-08-11T10:26:18.860Z,90.00
2017-08-11T10:26:19.463Z,90.00
2017-08-11T10:26:20.065Z,90.00
2017-08-11T10:26:20.665Z,90.00
2017-08-11T10:27:14.142Z,90.00
2017-08-11T10:27:14.716Z,90.00
2017-08-11T10:27:15.321Z,90.00
2017-08-11T10:27:15.918Z,90.00
2017-08-11T10:27:16.518Z,90.00
2017-08-11T10:27:17.116Z,90.00
2017-08-11T10:27:17.717Z,90.00
2017-08-11T10:27:18.317Z,90.00
2017-08-11T10:28:11.773Z,90.00
2017-08-11T10:28:12.367Z,90.00
2017-08-11T10:28:12.979Z,90.00
2017-08-11T10:28:13.573Z,90.00
2017-08-11T10:28:14.169Z,90.00
2017-08-11T10:28:14.771Z,90.00
2017-08-11T10:28:15.371Z,90.00
2017-08-11T10:28:15.971Z,90.00
2017-08-11T10:29:09.428Z,84.38
2017-08-11T10:29:10.022Z,84.38
2017-08-11T10:29:10.617Z,84.38
2017-08-11T10:29:11.221Z,84.38
2017-08-11T10:29:11.825Z,84.38
2017-08-11T10:29:12.421Z,84.38
2017-08-11T10:29:13.023Z,84.38
2017-08-11T10:29:13.619Z,84.38
2017-08-11T10:30:07.075Z,84.38
2017-08-11T10:30:07.676Z,84.38
2017-08-11T10:30:08.273Z,84.38
2017-08-11T10:30:08.873Z,84.38
2017-08-11T10:30:09.473Z,84.38
2017-08-11T10:30:10.068Z,84.38
2017-08-11T10:30:10.668Z,84.38
2017-08-11T10:30:11.274Z,84.38
2017-08-11T10:31:04.723Z,84.38
2017-08-11T10:31:05.323Z,84.38
2017-08-11T10:31:05.920Z,84.38
2017-08-11T10:31:06.525Z,84.38
2017-08-11T10:31:07.122Z,84.38
2017-08-11T10:31:07.726Z,84.38
2017-08-11T10:31:08.323Z,84.38
2017-08-11T10:31:08.926Z,84.38
2017-08-11T10:32:03.438Z,90.00
2017-08-11T10:32:03.996Z,90.00
2017-08-11T10:32:04.602Z,90.00
2017-08-11T10:32:05.195Z,90.00
2017-08-11T10:32:05.802Z,90.00
2017-08-11T10:32:06.395Z,90.00
2017-08-11T10:32:06.994Z,90.00
2017-08-11T10:32:07.598Z,90.00
2017-08-11T10:33:02.076Z,90.00
2017-08-11T10:33:02.673Z,90.00
2017-08-11T10:33:03.275Z,90.00
2017-08-11T10:33:03.871Z,90.00
2017-08-11T10:33:04.473Z,90.00
2017-08-11T10:33:05.075Z,90.00
2017-08-11T10:33:05.675Z,90.00
2017-08-11T10:33:06.271Z,90.00
2017-08-11T10:34:00.759Z,95.63
2017-08-11T10:34:01.355Z,95.63
2017-08-11T10:34:01.950Z,95.63
2017-08-11T10:34:02.545Z,95.63
2017-08-11T10:34:03.151Z,95.63
2017-08-11T10:34:03.751Z,95.63
2017-08-11T10:34:04.349Z,95.63
2017-08-11T10:34:04.950Z,95.63
2017-08-11T10:34:58.414Z,95.63
2017-08-11T10:34:58.999Z,95.63
2017-08-11T10:34:59.609Z,95.63
2017-08-11T10:35:00.201Z,95.63
2017-08-11T10:35:00.800Z,95.63
2017-08-11T10:35:01.405Z,95.63
2017-08-11T10:35:02.005Z,95.63
2017-08-11T10:35:02.601Z,95.63
2017-08-11T10:35:57.084Z,90.00
2017-08-11T10:35:57.674Z,90.00
2017-08-11T10:35:58.281Z,90.00
2017-08-11T10:35:58.877Z,90.00
2017-08-11T10:35:59.472Z,90.00
2017-08-11T10:36:00.072Z,90.00
2017-08-11T10:36:00.674Z,90.00
2017-08-11T10:36:01.274Z,90.00
2017-08-11T10:36:55.752Z,95.63
2017-08-11T10:36:56.355Z,95.63
2017-08-11T10:36:56.958Z,95.63
2017-08-11T10:36:57.552Z,95.63
2017-08-11T10:36:58.153Z,95.63
2017-08-11T10:36:58.756Z,95.63
2017-08-11T10:36:59.350Z,95.63
2017-08-11T10:36:59.954Z,95.63
2017-08-11T10:37:53.427Z,95.63
2017-08-11T10:37:54.001Z,95.63
2017-08-11T10:37:54.610Z,95.63
2017-08-11T10:37:55.209Z,95.63
2017-08-11T10:37:55.805Z,95.63
2017-08-11T10:37:56.403Z,95.63
2017-08-11T10:37:57.009Z,95.63
2017-08-11T10:37:57.605Z,95.63
2017-08-11T10:38:52.083Z,101.25
2017-08-11T10:38:52.685Z,101.25
2017-08-11T10:38:53.281Z,101.25
2017-08-11T10:38:53.879Z,101.25
2017-08-11T10:38:54.476Z,101.25
2017-08-11T10:38:55.080Z,101.25
2017-08-11T10:38:55.683Z,101.25
2017-08-11T10:38:56.280Z,101.25
2017-08-11T10:39:49.736Z,101.25
2017-08-11T10:39:50.336Z,101.25
2017-08-11T10:39:50.933Z,101.25
2017-08-11T10:39:51.531Z,101.25
2017-08-11T10:39:52.130Z,101.25
2017-08-11T10:39:52.770Z,101.25
2017-08-11T10:39:53.327Z,101.25
2017-08-11T10:39:53.933Z,101.25
2017-08-11T10:40:47.387Z,73.13
2017-08-11T10:40:47.979Z,67.50
2017-08-11T10:40:48.583Z,67.50
2017-08-11T10:40:49.184Z,67.50
2017-08-11T10:40:49.787Z,61.88
2017-08-11T10:40:50.383Z,61.88
2017-08-11T10:40:50.988Z,67.50
2017-08-11T10:40:51.610Z,67.50
2017-08-11T10:41:45.040Z,73.13
2017-08-11T10:41:45.636Z,73.13
2017-08-11T10:41:46.235Z,73.13
2017-08-11T10:41:46.835Z,73.13
2017-08-11T10:41:47.436Z,73.13
2017-08-11T10:41:48.036Z,73.13
2017-08-11T10:41:48.636Z,73.13
2017-08-11T10:41:49.235Z,73.13
2017-08-11T10:42:42.691Z,101.25
2017-08-11T10:42:43.289Z,101.25
2017-08-11T10:42:43.888Z,101.25
2017-08-11T10:42:44.490Z,101.25
2017-08-11T10:42:45.088Z,101.25
2017-08-11T10:42:45.688Z,101.25
2017-08-11T10:42:46.291Z,101.25
2017-08-11T10:42:46.886Z,101.25
2017-08-11T10:43:41.387Z,95.63
2017-08-11T10:43:41.962Z,95.63
2017-08-11T10:43:42.558Z,95.63
2017-08-11T10:43:43.161Z,95.63
2017-08-11T10:43:43.762Z,95.63
2017-08-11T10:43:44.361Z,95.63
2017-08-11T10:43:44.964Z,95.63
2017-08-11T10:43:45.559Z,95.63
2017-08-11T10:44:40.038Z,95.63
2017-08-11T10:44:40.638Z,95.63
2017-08-11T10:44:41.235Z,95.63
2017-08-11T10:44:41.841Z,95.63
2017-08-11T10:44:42.433Z,95.63
2017-08-11T10:44:43.041Z,95.63
2017-08-11T10:44:43.637Z,95.63
2017-08-11T10:44:44.236Z,95.63
2017-08-11T10:45:37.694Z,101.25
2017-08-11T10:45:38.294Z,101.25
2017-08-11T10:45:38.891Z,101.25
2017-08-11T10:45:39.495Z,101.25
2017-08-11T10:45:40.090Z,101.25
2017-08-11T10:45:40.693Z,101.25
2017-08-11T10:45:41.289Z,101.25
2017-08-11T10:45:41.889Z,101.25
2017-08-11T10:46:35.342Z,101.25
2017-08-11T10:46:35.944Z,101.25
2017-08-11T10:46:36.555Z,101.25
2017-08-11T10:46:37.144Z,101.25
2017-08-11T10:46:37.741Z,101.25
2017-08-11T10:46:38.337Z,101.25
2017-08-11T10:46:38.942Z,101.25
2017-08-11T10:46:39.544Z,101.25
2017-08-11T12:57:16.397Z,168.75
2017-08-11T12:57:16.978Z,163.13
2017-08-11T12:57:17.578Z,163.13
2017-08-11T12:57:18.173Z,163.13
2017-08-11T12:57:18.773Z,163.13
2017-08-11T12:57:19.369Z,163.13
2017-08-11T12:57:19.972Z,163.13
2017-08-11T12:57:20.572Z,163.13
2017-08-11T12:58:15.083Z,163.13
2017-08-11T12:58:15.666Z,163.13
2017-08-11T12:58:16.254Z,163.13
2017-08-11T12:58:16.854Z,163.13
2017-08-11T12:58:17.450Z,163.13
2017-08-11T12:58:18.051Z,163.13
2017-08-11T12:58:18.647Z,163.13
2017-08-11T12:58:19.257Z,163.13
2017-08-11T12:59:25.510Z,180.00
2017-08-11T12:59:26.100Z,180.00
2017-08-11T12:59:26.704Z,180.00
2017-08-11T12:59:27.300Z,180.00
2017-08-11T12:59:27.912Z,180.00
2017-08-11T12:59:28.499Z,180.00
2017-08-11T12:59:29.099Z,180.00
2017-08-11T12:59:29.704Z,180.00
2017-08-11T13:00:24.182Z,157.50
2017-08-11T13:00:24.783Z,157.50
2017-08-11T13:00:25.379Z,157.50
2017-08-11T13:00:25.978Z,157.50
2017-08-11T13:00:26.578Z,157.50
2017-08-11T13:00:27.184Z,157.50
2017-08-11T13:00:27.779Z,157.50
2017-08-11T13:00:28.377Z,163.13
2017-08-11T13:01:22.858Z,151.88
2017-08-11T13:01:23.452Z,151.88
2017-08-11T13:01:24.058Z,151.88
2017-08-11T13:01:24.655Z,151.88
2017-08-11T13:01:25.251Z,151.88
2017-08-11T13:01:25.850Z,151.88
2017-08-11T13:01:26.449Z,151.88
2017-08-11T13:01:27.054Z,151.88
2017-08-11T13:02:21.542Z,146.25
2017-08-11T13:02:22.131Z,146.25
2017-08-11T13:02:22.728Z,146.25
2017-08-11T13:02:23.335Z,146.25
2017-08-11T13:02:23.951Z,146.25
2017-08-11T13:02:24.530Z,146.25
2017-08-11T13:02:25.130Z,146.25
2017-08-11T13:02:25.729Z,146.25
2017-08-11T13:03:20.237Z,140.63
2017-08-11T13:03:20.806Z,140.63
2017-08-11T13:03:21.406Z,140.63
2017-08-11T13:03:22.003Z,140.63
2017-08-11T13:03:22.609Z,140.63
2017-08-11T13:03:23.222Z,140.63
2017-08-11T13:03:23.805Z,140.63
2017-08-11T13:03:24.409Z,140.63
2017-08-11T13:04:18.885Z,129.38
2017-08-11T13:04:19.487Z,135.00
2017-08-11T13:04:20.079Z,140.63
2017-08-11T13:04:20.684Z,140.63
2017-08-11T13:04:21.282Z,140.63
2017-08-11T13:04:21.877Z,140.63
2017-08-11T13:04:22.496Z,140.63
2017-08-11T13:04:23.082Z,140.63
2017-08-11T13:05:59.035Z,33.75
2017-08-11T13:05:59.627Z,33.75
2017-08-11T13:06:00.225Z,33.75
2017-08-11T13:06:00.827Z,33.75
2017-08-11T13:06:01.427Z,33.75
2017-08-11T13:06:02.023Z,33.75
2017-08-11T13:06:02.624Z,33.75
2017-08-11T13:06:03.227Z,33.75
2017-08-11T13:06:56.685Z,33.75
2017-08-11T13:06:57.283Z,33.75
2017-08-11T13:06:57.884Z,33.75
2017-08-11T13:06:58.485Z,33.75
2017-08-11T13:06:59.078Z,33.75
2017-08-11T13:06:59.684Z,33.75
2017-08-11T13:07:00.277Z,33.75
2017-08-11T13:07:00.881Z,33.75
2017-08-11T13:07:54.338Z,33.75
2017-08-11T13:07:54.937Z,33.75
2017-08-11T13:07:55.537Z,33.75
2017-08-11T13:07:56.134Z,33.75
2017-08-11T13:07:56.737Z,33.75
2017-08-11T13:07:57.328Z,33.75
2017-08-11T13:07:57.933Z,33.75
2017-08-11T13:07:58.538Z,33.75
2017-08-11T13:08:53.035Z,33.75
2017-08-11T13:08:53.604Z,33.75
2017-08-11T13:08:54.210Z,33.75
2017-08-11T13:08:54.811Z,33.75
2017-08-11T13:08:55.409Z,33.75
2017-08-11T13:08:56.017Z,33.75
2017-08-11T13:08:56.611Z,33.75
2017-08-11T13:08:57.208Z,33.75
2017-08-11T13:09:50.665Z,33.75
2017-08-11T13:09:51.263Z,33.75
2017-08-11T13:09:51.858Z,33.75
2017-08-11T13:09:52.464Z,33.75
2017-08-11T13:09:53.059Z,33.75
2017-08-11T13:09:53.662Z,33.75
2017-08-11T13:09:54.258Z,33.75
2017-08-11T13:09:54.868Z,33.75
2017-08-11T13:10:49.339Z,28.13
2017-08-11T13:10:49.936Z,28.13
2017-08-11T13:10:50.537Z,28.13
2017-08-11T13:10:51.140Z,28.13
2017-08-11T13:10:51.736Z,28.13
2017-08-11T13:10:52.340Z,28.13
2017-08-11T13:10:52.936Z,28.13
2017-08-11T13:10:53.536Z,28.13
2017-08-11T13:11:48.016Z,28.13
2017-08-11T13:11:48.617Z,28.13
2017-08-11T13:11:49.211Z,28.13
2017-08-11T13:11:49.815Z,28.13
2017-08-11T13:11:50.415Z,28.13
2017-08-11T13:11:51.008Z,28.13
2017-08-11T13:11:51.612Z,28.13
2017-08-11T13:11:52.211Z,28.13
2017-08-11T13:12:46.692Z,28.13
2017-08-11T13:12:47.291Z,28.13
2017-08-11T13:12:47.887Z,28.13
2017-08-11T13:12:48.484Z,28.13
2017-08-11T13:12:49.088Z,28.13
2017-08-11T13:12:49.688Z,28.13
2017-08-11T13:12:50.289Z,28.13
2017-08-11T13:12:50.891Z,28.13
2017-08-11T13:13:44.368Z,28.13
2017-08-11T13:13:44.939Z,28.13
2017-08-11T13:13:45.538Z,28.13
2017-08-11T13:13:46.141Z,28.13
2017-08-11T13:13:46.740Z,28.13